Time;durP1;ratioP1;P1;durP2;ratioP2;P2;SDS_P1;SDS_P2;PMS_P1;PMS_P2;Temp;Humidity;BMP_temperature;BMP_pressure;BME280_temperature;BME280_humidity;BME280_pressure;Samples;Min_cycle;Max_cycle;Signal;HPM_P1;HPM_P2
2022/01/20 00:00:14;;;;;;;16.13;3.70;;;4.80;99.90;;;;;;4992316;28;20048;-80
2022/01/20 00:02:42;;;;;;;10.70;3.03;;;4.80;99.90;;;;;;4995347;28;20496;-80
2022/01/20 00:08:00;;;;;;;10.35;3.33;;;4.80;99.90;;;;;;4993201;28;20374;-80
2022/01/20 00:26:55;;;;;;;10.13;2.58;;;4.90;99.90;;;;;;5009028;28;20041;-80
2022/01/20 00:29:29;;;;;;;8.52;2.30;;;4.80;99.90;;;;;;4981431;28;20045;-80
2022/01/20 00:32:06;;;;;;;8.00;2.80;;;4.80;99.90;;;;;;4999846;28;20509;-80
2022/01/20 00:37:18;;;;;;;10.38;2.40;;;4.90;99.90;;;;;;5013082;28;20045;-80
2022/01/20 00:39:44;;;;;;;11.05;2.80;;;4.90;99.90;;;;;;5015960;28;20431;-80
2022/01/20 00:42:10;;;;;;;14.27;2.97;;;4.90;99.90;;;;;;5008603;28;20130;-81
2022/01/20 00:44:36;;;;;;;8.18;2.53;;;4.90;99.90;;;;;;5017545;28;20124;-80
2022/01/20 00:47:02;;;;;;;6.53;2.28;;;4.90;99.90;;;;;;5014810;28;20416;-80
2022/01/20 00:49:28;;;;;;;6.70;2.33;;;4.90;99.90;;;;;;5013362;28;20041;-80
2022/01/20 00:51:53;;;;;;;7.45;2.45;;;4.90;99.90;;;;;;5016542;28;20119;-90
2022/01/20 00:54:20;;;;;;;7.90;2.88;;;4.90;99.90;;;;;;5007976;28;20052;-91
2022/01/20 00:56:46;;;;;;;9.75;3.25;;;4.90;99.90;;;;;;5000786;28;20037;-91
2022/01/20 00:59:12;;;;;;;11.13;2.63;;;4.90;99.90;;;;;;5000385;28;20029;-91
2022/01/20 01:01:38;;;;;;;10.20;2.92;;;4.80;99.90;;;;;;4982505;28;20038;-91
2022/01/20 01:04:04;;;;;;;6.93;2.78;;;4.90;99.90;;;;;;5000888;28;20034;-91
2022/01/20 01:09:11;;;;;;;7.82;2.72;;;4.90;99.90;;;;;;5004398;28;20350;-90
2022/01/20 01:11:38;;;;;;;7.43;3.22;;;4.90;99.90;;;;;;5012213;28;20134;-90
2022/01/20 01:14:05;;;;;;;7.35;2.75;;;4.90;99.90;;;;;;4998844;28;20069;-90
2022/01/20 01:24:38;;;;;;;12.02;3.63;;;4.90;99.90;;;;;;5006849;28;20046;-80
2022/01/20 01:27:05;;;;;;;14.95;3.38;;;4.90;99.90;;;;;;5005568;28;20068;-80
2022/01/20 01:30:05;;;;;;;10.10;3.13;;;4.90;99.90;;;;;;5009619;28;20101;-81
2022/01/20 01:32:47;;;;;;;7.80;2.60;;;4.90;99.90;;;;;;4995109;28;20081;-80
2022/01/20 01:35:13;;;;;;;10.52;3.22;;;4.90;99.90;;;;;;5028106;28;20046;-90
2022/01/20 01:40:08;;;;;;;9.07;2.90;;;4.90;99.90;;;;;;4995840;28;20399;-90
2022/01/20 01:42:43;;;;;;;7.97;3.30;;;4.90;99.90;;;;;;4995001;28;20113;-89
2022/01/20 01:45:34;;;;;;;14.23;2.90;;;4.90;99.90;;;;;;5000226;28;20045;-91
2022/01/20 01:48:01;;;;;;;19.02;2.70;;;4.90;99.90;;;;;;4982395;28;20053;-92
2022/01/20 01:50:28;;;;;;;17.50;3.60;;;4.90;99.90;;;;;;4998625;28;20100;-92
2022/01/20 01:52:56;;;;;;;15.73;4.00;;;4.90;99.90;;;;;;4999053;28;20524;-92
2022/01/20 01:55:22;;;;;;;6.78;2.40;;;4.90;99.90;;;;;;4982022;28;20057;-91
2022/01/20 01:57:48;;;;;;;7.93;2.05;;;4.90;99.90;;;;;;5016202;28;20541;-91
2022/01/20 02:00:16;;;;;;;9.13;2.83;;;4.90;99.90;;;;;;4998703;28;20042;-91
2022/01/20 02:02:43;;;;;;;7.68;2.65;;;4.90;99.90;;;;;;5014234;28;20047;-91
2022/01/20 02:05:15;;;;;;;9.57;3.28;;;4.80;99.90;;;;;;4980697;28;20049;-80
2022/01/20 02:18:56;;;;;;;9.25;3.65;;;4.70;99.90;;;;;;4991899;28;20046;-80
2022/01/20 02:21:22;;;;;;;17.85;3.25;;;4.70;99.90;;;;;;4977871;28;20108;-79
2022/01/20 02:23:48;;;;;;;17.52;3.47;;;4.60;99.90;;;;;;4985208;28;20495;-80
2022/01/20 02:26:14;;;;;;;14.52;3.28;;;4.70;99.90;;;;;;5005063;28;20362;-80
2022/01/20 02:28:40;;;;;;;8.68;3.20;;;4.60;99.90;;;;;;5009854;28;20133;-79
2022/01/20 02:31:06;;;;;;;13.00;3.47;;;4.60;99.90;;;;;;4991253;28;20034;-79
2022/01/20 02:33:32;;;;;;;14.18;4.20;;;4.60;99.90;;;;;;4991949;28;20038;-79
2022/01/20 02:36:02;;;;;;;12.80;4.65;;;4.60;99.90;;;;;;4958311;28;20042;-79
2022/01/20 02:46:24;;;;;;;22.10;6.10;;;4.60;99.90;;;;;;5003598;28;20045;-79
2022/01/20 02:48:50;;;;;;;14.77;5.78;;;4.50;99.90;;;;;;4974138;28;20038;-79
2022/01/20 02:51:16;;;;;;;22.30;7.47;;;4.60;99.90;;;;;;4972224;28;20112;-79
2022/01/20 02:53:42;;;;;;;23.95;6.35;;;4.60;99.90;;;;;;4989455;28;20073;-79
2022/01/20 02:56:07;;;;;;;31.73;5.43;;;4.60;99.90;;;;;;4989867;28;20048;-79
2022/01/20 02:58:33;;;;;;;14.77;5.30;;;4.60;99.90;;;;;;4973662;28;20034;-79
2022/01/20 03:01:00;;;;;;;19.05;5.88;;;4.60;99.90;;;;;;4974386;28;20034;-79
2022/01/20 03:03:26;;;;;;;20.50;6.05;;;4.60;99.90;;;;;;4993285;28;20042;-93
2022/01/20 03:05:52;;;;;;;21.83;6.57;;;4.50;99.90;;;;;;5017613;28;20104;-91
2022/01/20 03:08:18;;;;;;;26.15;5.80;;;4.50;99.90;;;;;;4984844;28;20073;-91
2022/01/20 03:10:44;;;;;;;23.20;5.80;;;4.50;99.90;;;;;;4968293;28;20071;-91
2022/01/20 03:13:09;;;;;;;16.85;5.85;;;4.40;99.90;;;;;;5033180;28;20498;-92
2022/01/20 03:15:35;;;;;;;21.60;6.15;;;4.40;99.90;;;;;;5004309;28;20046;-92
2022/01/20 03:18:03;;;;;;;23.02;5.95;;;4.40;99.90;;;;;;5008013;28;20052;-92
2022/01/20 03:20:29;;;;;;;21.58;4.97;;;4.30;99.90;;;;;;5038986;28;20037;-92
2022/01/20 03:22:55;;;;;;;15.00;4.63;;;4.30;99.90;;;;;;5004644;28;20037;-92
2022/01/20 03:25:21;;;;;;;27.40;5.25;;;4.30;99.90;;;;;;5010154;28;20048;-92
2022/01/20 03:27:46;;;;;;;19.58;5.18;;;4.30;99.90;;;;;;5024898;28;20067;-92
2022/01/20 03:30:13;;;;;;;19.98;5.55;;;4.30;99.90;;;;;;4991992;28;20048;-92
2022/01/20 03:32:39;;;;;;;18.48;5.30;;;4.20;99.90;;;;;;4999484;28;20041;-79
2022/01/20 03:35:08;;;;;;;15.82;5.10;;;4.30;99.90;;;;;;4976246;28;20065;-79
2022/01/20 03:37:35;;;;;;;18.23;6.05;;;4.20;99.90;;;;;;5010572;28;20061;-79
2022/01/20 03:40:01;;;;;;;15.23;4.97;;;4.20;99.90;;;;;;5011442;28;20034;-79
2022/01/20 03:42:27;;;;;;;15.75;5.32;;;4.20;99.90;;;;;;4975466;28;20725;-79
2022/01/20 03:44:54;;;;;;;7.03;3.58;;;4.20;99.90;;;;;;4977781;28;20041;-80
2022/01/20 03:47:23;;;;;;;12.27;3.33;;;4.20;99.90;;;;;;4962483;28;20045;-79
2022/01/20 03:50:07;;;;;;;10.27;4.07;;;4.20;99.90;;;;;;5001810;28;20458;-92
2022/01/20 03:52:34;;;;;;;8.52;2.75;;;4.20;99.90;;;;;;5017306;28;20045;-92
2022/01/20 03:55:00;;;;;;;12.63;3.25;;;4.10;99.90;;;;;;5013163;28;20037;-92
2022/01/20 03:57:26;;;;;;;12.45;3.20;;;4.10;99.90;;;;;;5003945;28;20034;-93
2022/01/20 03:59:52;;;;;;;11.05;3.60;;;4.10;99.90;;;;;;4988897;28;20041;-92
2022/01/20 04:02:18;;;;;;;17.88;4.57;;;4.10;99.90;;;;;;5002484;28;20040;-92
2022/01/20 04:04:44;;;;;;;14.32;4.13;;;4.00;99.90;;;;;;5027273;28;20456;-92
2022/01/20 04:07:10;;;;;;;14.07;4.28;;;4.10;99.90;;;;;;5003486;28;20098;-93
2022/01/20 04:09:38;;;;;;;13.02;3.53;;;4.00;99.90;;;;;;4997291;28;20042;-92
2022/01/20 04:12:05;;;;;;;9.85;3.10;;;4.00;99.90;;;;;;5006642;28;20058;-92
2022/01/20 04:14:33;;;;;;;11.30;3.95;;;4.00;99.90;;;;;;5001651;28;20049;-92
2022/01/20 04:17:04;;;;;;;11.52;4.07;;;4.00;99.90;;;;;;4985019;28;20046;-92
2022/01/20 04:19:32;;;;;;;13.23;4.05;;;3.90;99.90;;;;;;4984865;28;20142;-92
2022/01/20 04:22:00;;;;;;;13.23;3.70;;;3.90;99.90;;;;;;5026866;28;20033;-92
2022/01/20 04:24:26;;;;;;;15.70;4.45;;;3.90;99.90;;;;;;5021988;28;20041;-92
2022/01/20 04:26:52;;;;;;;12.07;3.88;;;3.90;99.90;;;;;;5000794;28;20042;-92
2022/01/20 04:29:18;;;;;;;7.20;4.28;;;3.90;99.90;;;;;;5008570;28;20049;-93
2022/01/20 04:31:45;;;;;;;8.10;2.65;;;3.80;99.90;;;;;;5016294;28;20038;-92
2022/01/20 04:34:12;;;;;;;15.10;2.58;;;3.70;99.90;;;;;;5003888;28;20038;-79
2022/01/20 04:36:42;;;;;;;5.53;2.38;;;3.70;99.90;;;;;;4991495;28;20115;-79
2022/01/20 04:39:12;;;;;;;5.82;2.13;;;3.70;99.90;;;;;;4988194;28;20042;-79
2022/01/20 04:41:38;;;;;;;9.07;2.50;;;3.60;99.90;;;;;;5008118;28;20368;-79
2022/01/20 04:44:09;;;;;;;6.30;2.50;;;3.60;99.90;;;;;;4991108;28;20054;-79
2022/01/20 04:46:50;;;;;;;13.82;3.65;;;3.60;99.90;;;;;;4989271;28;20521;-79
2022/01/20 04:57:29;;;;;;;15.45;3.45;;;3.50;99.90;;;;;;5016665;28;20115;-92
2022/01/20 04:59:55;;;;;;;15.80;3.65;;;3.50;99.90;;;;;;4998410;28;20042;-92
2022/01/20 05:02:25;;;;;;;10.52;3.80;;;3.50;99.90;;;;;;4996738;28;20057;-93
2022/01/20 05:04:51;;;;;;;10.55;3.67;;;3.50;99.90;;;;;;4999477;28;20042;-93
2022/01/20 05:07:24;;;;;;;14.63;4.10;;;3.50;99.90;;;;;;5015612;28;20046;-93
2022/01/20 05:09:51;;;;;;;10.68;3.33;;;3.50;99.90;;;;;;5000918;28;20050;-91
2022/01/20 05:12:25;;;;;;;12.60;4.15;;;3.50;99.90;;;;;;4982604;28;20064;-92
2022/01/20 05:14:50;;;;;;;12.27;4.00;;;3.50;99.90;;;;;;4999612;28;20057;-92
2022/01/20 05:17:16;;;;;;;12.82;3.78;;;3.40;99.90;;;;;;5019151;28;20034;-92
2022/01/20 05:19:42;;;;;;;14.10;4.88;;;3.40;99.90;;;;;;4989478;28;20033;-92
2022/01/20 05:22:08;;;;;;;26.42;5.22;;;3.50;99.90;;;;;;5019104;28;20034;-91
2022/01/20 05:24:33;;;;;;;15.82;4.10;;;3.40;99.90;;;;;;5017286;28;20080;-79
2022/01/20 05:26:59;;;;;;;10.63;4.18;;;3.40;99.90;;;;;;4994115;28;20393;-79
2022/01/20 05:29:25;;;;;;;11.32;3.53;;;3.40;99.90;;;;;;4976924;28;20174;-79
2022/01/20 05:31:52;;;;;;;7.53;2.83;;;3.50;99.90;;;;;;5006358;28;20038;-78
2022/01/20 05:34:19;;;;;;;10.55;3.15;;;3.50;99.90;;;;;;5010287;28;20450;-78
2022/01/20 05:36:47;;;;;;;10.88;3.13;;;3.50;99.90;;;;;;4976980;28;20091;-78
2022/01/20 05:39:14;;;;;;;13.52;4.05;;;3.50;99.90;;;;;;4990196;28;20399;-78
2022/01/20 05:41:40;;;;;;;7.32;2.60;;;3.40;99.90;;;;;;5009975;28;20070;-78
2022/01/20 05:44:06;;;;;;;12.18;3.30;;;3.50;99.90;;;;;;5008937;28;20462;-78
2022/01/20 05:46:40;;;;;;;15.00;3.53;;;3.40;99.90;;;;;;5006841;28;20042;-78
2022/01/20 05:49:09;;;;;;;12.50;3.42;;;3.40;99.90;;;;;;5010014;28;20045;-78
2022/01/20 05:51:39;;;;;;;12.00;3.67;;;3.40;99.90;;;;;;5008739;28;20095;-79
2022/01/20 05:54:06;;;;;;;15.43;4.28;;;3.50;99.90;;;;;;5006670;28;20405;-78
2022/01/20 05:56:34;;;;;;;19.27;3.72;;;3.40;99.90;;;;;;4993886;28;20411;-78
2022/01/20 05:59:00;;;;;;;7.05;3.17;;;3.40;99.90;;;;;;5012126;28;20236;-79
2022/01/20 06:01:27;;;;;;;10.15;2.90;;;3.40;99.90;;;;;;4973967;28;20156;-79
2022/01/20 06:03:54;;;;;;;6.93;2.42;;;3.40;99.90;;;;;;4973796;28;20137;-78
2022/01/20 06:06:19;;;;;;;8.20;2.88;;;3.40;99.90;;;;;;4990291;28;20052;-78
2022/01/20 06:08:45;;;;;;;11.15;3.80;;;3.40;99.90;;;;;;4976023;28;20046;-80
2022/01/20 06:11:11;;;;;;;13.43;4.00;;;3.30;99.90;;;;;;4993457;28;20045;-80
2022/01/20 06:13:37;;;;;;;13.25;3.70;;;3.40;99.90;;;;;;4974786;28;20124;-80
2022/01/20 06:16:03;;;;;;;11.82;3.70;;;3.30;99.90;;;;;;4977988;28;20447;-80
2022/01/20 06:18:29;;;;;;;14.93;3.58;;;3.30;99.90;;;;;;4976965;28;20117;-80
2022/01/20 06:20:55;;;;;;;7.95;2.95;;;3.30;99.90;;;;;;4974607;28;20163;-80
2022/01/20 06:23:22;;;;;;;10.50;3.28;;;3.30;99.90;;;;;;4991371;28;20054;-79
2022/01/20 06:25:48;;;;;;;15.73;3.70;;;3.40;99.90;;;;;;5004246;28;20117;-79
2022/01/20 06:28:15;;;;;;;12.30;3.38;;;3.40;99.90;;;;;;4984872;28;20391;-80
2022/01/20 06:30:41;;;;;;;11.13;3.33;;;3.40;99.90;;;;;;4998850;28;20060;-77
2022/01/20 06:33:07;;;;;;;8.35;3.03;;;3.30;99.90;;;;;;4986530;28;20144;-77
2022/01/20 06:35:34;;;;;;;14.27;3.28;;;3.30;99.90;;;;;;4987060;28;20030;-77
2022/01/20 06:38:00;;;;;;;10.23;3.20;;;3.30;99.90;;;;;;4970901;28;20046;-76
2022/01/20 06:40:26;;;;;;;12.95;3.55;;;3.30;99.90;;;;;;4987853;28;20399;-77
2022/01/20 06:42:52;;;;;;;11.90;3.30;;;3.30;99.90;;;;;;4989597;28;20045;-77
2022/01/20 06:45:20;;;;;;;5.05;2.50;;;3.30;99.90;;;;;;5007384;28;20048;-77
2022/01/20 06:47:45;;;;;;;13.85;3.42;;;3.30;99.90;;;;;;4987169;28;20386;-77
2022/01/20 06:50:12;;;;;;;14.32;4.43;;;3.30;99.90;;;;;;4988682;28;20065;-76
2022/01/20 06:52:39;;;;;;;15.00;3.92;;;3.30;99.90;;;;;;4973143;28;20056;-76
2022/01/20 06:55:07;;;;;;;8.00;2.90;;;3.30;99.90;;;;;;4956648;28;20418;-77
2022/01/20 06:57:34;;;;;;;5.68;1.88;;;3.30;99.90;;;;;;4990789;28;20034;-88
2022/01/20 07:00:02;;;;;;;7.25;2.00;;;3.20;99.90;;;;;;4980782;28;20038;-90
2022/01/20 07:02:28;;;;;;;9.15;2.47;;;3.20;99.90;;;;;;4994298;28;20041;-90
2022/01/20 07:04:53;;;;;;;6.40;2.22;;;3.20;99.90;;;;;;4984247;28;20304;-84
2022/01/20 07:07:19;;;;;;;5.05;2.63;;;3.10;99.90;;;;;;5005795;28;20442;-89
2022/01/20 07:09:45;;;;;;;8.93;2.35;;;3.10;99.90;;;;;;4990379;28;20574;-90
2022/01/20 07:12:12;;;;;;;6.88;1.98;;;3.10;99.90;;;;;;5007898;28;20081;-82
2022/01/20 07:14:39;;;;;;;11.60;3.08;;;3.10;99.90;;;;;;4988642;28;20534;-82
2022/01/20 07:17:05;;;;;;;12.25;3.75;;;3.10;99.90;;;;;;5004567;28;20113;-88
2022/01/20 07:19:32;;;;;;;12.20;3.30;;;3.10;99.90;;;;;;4978865;28;20061;-92
2022/01/20 07:21:58;;;;;;;10.25;3.38;;;3.10;99.90;;;;;;4964821;28;20199;-91
2022/01/20 07:24:27;;;;;;;16.15;3.70;;;3.10;99.90;;;;;;4992868;28;20065;-90
2022/01/20 07:26:53;;;;;;;12.55;3.75;;;3.10;99.90;;;;;;4986098;28;20105;-91
2022/01/20 07:29:19;;;;;;;11.40;4.28;;;3.10;99.90;;;;;;4994950;28;20459;-89
2022/01/20 07:31:45;;;;;;;16.98;3.70;;;3.20;99.90;;;;;;4976476;28;20034;-83
2022/01/20 07:34:11;;;;;;;16.55;4.38;;;3.10;99.90;;;;;;4974674;28;20040;-81
2022/01/20 07:36:36;;;;;;;13.63;3.85;;;3.10;99.90;;;;;;4971620;28;20033;-88
2022/01/20 07:39:03;;;;;;;15.80;4.45;;;3.10;99.90;;;;;;4994898;28;20504;-89
2022/01/20 07:41:29;;;;;;;12.60;4.22;;;3.20;99.90;;;;;;5013968;28;20116;-92
2022/01/20 07:43:55;;;;;;;10.35;4.05;;;3.10;99.90;;;;;;5002807;28;20073;-93
2022/01/20 07:46:21;;;;;;;14.07;3.40;;;3.20;99.90;;;;;;4987686;28;20042;-92
2022/01/20 07:48:47;;;;;;;12.30;4.47;;;3.20;99.90;;;;;;4961850;28;20076;-92
2022/01/20 07:51:14;;;;;;;20.50;4.75;;;3.20;99.90;;;;;;5017179;28;20109;-93
2022/01/20 07:53:42;;;;;;;14.77;4.22;;;3.20;99.90;;;;;;5000032;28;20486;-90
2022/01/20 07:56:09;;;;;;;12.27;4.70;;;3.10;99.90;;;;;;4987130;28;20041;-92
2022/01/20 07:58:35;;;;;;;12.18;4.55;;;3.10;99.90;;;;;;5029339;28;20038;-91
2022/01/20 08:01:03;;;;;;;11.90;5.10;;;3.20;99.90;;;;;;4981606;28;20029;-92
2022/01/20 08:03:28;;;;;;;17.08;4.90;;;3.20;99.90;;;;;;4992881;28;20041;-92
2022/01/20 08:05:55;;;;;;;13.40;4.28;;;3.20;99.90;;;;;;4996858;28;20140;-91
2022/01/20 08:08:20;;;;;;;14.30;4.00;;;3.20;99.90;;;;;;5009409;28;20161;-92
2022/01/20 08:10:47;;;;;;;15.38;4.80;;;3.20;99.90;;;;;;5009116;28;20042;-92
2022/01/20 08:13:13;;;;;;;17.98;4.40;;;3.20;99.90;;;;;;5018676;28;20054;-92
2022/01/20 08:15:40;;;;;;;12.43;3.97;;;3.20;99.90;;;;;;5006271;28;20053;-92
2022/01/20 08:18:07;;;;;;;11.20;3.55;;;3.20;99.90;;;;;;5003319;28;20045;-92
2022/01/20 08:20:33;;;;;;;18.88;5.53;;;3.20;99.90;;;;;;4998238;28;20038;-83
2022/01/20 08:22:59;;;;;;;12.85;4.53;;;3.20;99.90;;;;;;4961078;28;20038;-86
2022/01/20 08:25:26;;;;;;;12.32;3.45;;;3.20;99.90;;;;;;4991106;28;20034;-92
2022/01/20 08:27:52;;;;;;;9.63;3.40;;;3.10;99.90;;;;;;4976585;28;20042;-90
2022/01/20 08:30:21;;;;;;;11.85;3.47;;;3.20;99.90;;;;;;5005238;28;20428;-90
2022/01/20 08:32:48;;;;;;;9.82;3.80;;;3.20;99.90;;;;;;4961438;28;20136;-91
2022/01/20 08:35:14;;;;;;;16.05;4.97;;;3.20;99.90;;;;;;4985148;28;20069;-91
2022/01/20 08:37:44;;;;;;;16.65;3.70;;;3.30;99.90;;;;;;5001957;28;20038;-91
2022/01/20 08:40:13;;;;;;;12.88;4.20;;;3.30;99.90;;;;;;4975098;28;20142;-90
2022/01/20 08:42:46;;;;;;;19.65;3.88;;;3.30;99.90;;;;;;4981414;28;20045;-91
2022/01/20 08:45:14;;;;;;;16.20;4.40;;;3.30;99.90;;;;;;5009755;28;20069;-90
2022/01/20 08:47:40;;;;;;;19.45;4.55;;;3.40;99.90;;;;;;4996645;28;20030;-90
2022/01/20 08:50:07;;;;;;;8.30;3.95;;;3.40;99.90;;;;;;4996026;28;20092;-90
2022/01/20 08:52:33;;;;;;;9.90;4.15;;;3.40;99.90;;;;;;4976512;28;20046;-91
2022/01/20 08:54:59;;;;;;;15.98;3.95;;;3.50;99.90;;;;;;4984724;28;20069;-90
2022/01/20 08:57:28;;;;;;;13.07;3.90;;;3.50;99.90;;;;;;4982476;28;20045;-90
2022/01/20 08:59:55;;;;;;;17.10;3.95;;;3.50;99.90;;;;;;4981698;28;20038;-91
2022/01/20 09:02:22;;;;;;;13.00;3.67;;;3.50;99.90;;;;;;5012423;28;20394;-90
2022/01/20 09:04:49;;;;;;;9.23;3.78;;;3.60;99.90;;;;;;5010916;28;20049;-90
2022/01/20 09:07:16;;;;;;;20.95;5.28;;;3.70;99.90;;;;;;4979703;28;20046;-77
2022/01/20 09:09:45;;;;;;;10.38;3.85;;;3.70;99.90;;;;;;4963045;28;20497;-81
2022/01/20 09:17:26;;;;;;;21.95;4.53;;;3.80;99.90;;;;;;4996278;28;20422;-82
2022/01/20 09:19:52;;;;;;;13.00;3.25;;;3.80;99.90;;;;;;4978969;28;20037;-82
2022/01/20 09:22:20;;;;;;;16.58;4.53;;;3.90;99.90;;;;;;4943218;28;20038;-81
2022/01/20 09:24:47;;;;;;;16.55;3.72;;;3.90;99.90;;;;;;4961293;28;20053;-81
2022/01/20 09:27:14;;;;;;;10.82;3.92;;;3.90;99.90;;;;;;4969341;28;20049;-81
2022/01/20 09:29:41;;;;;;;10.68;3.05;;;4.00;99.90;;;;;;4976728;28;20689;-80
2022/01/20 09:32:10;;;;;;;9.38;3.28;;;4.00;99.90;;;;;;4951783;28;20343;-80
2022/01/20 09:34:36;;;;;;;11.18;3.45;;;3.90;99.90;;;;;;4981422;28;20038;-81
2022/01/20 09:37:02;;;;;;;11.98;3.17;;;4.00;99.90;;;;;;4993641;28;20034;-81
2022/01/20 09:39:28;;;;;;;7.20;3.22;;;4.00;99.90;;;;;;5004191;28;20487;-81
2022/01/20 09:41:54;;;;;;;9.18;3.58;;;4.00;99.90;;;;;;4981713;28;20175;-81
2022/01/20 09:44:20;;;;;;;11.77;3.60;;;4.10;99.90;;;;;;4990796;28;20057;-81
2022/01/20 09:46:46;;;;;;;8.07;3.70;;;4.10;99.90;;;;;;4970537;28;20038;-81
2022/01/20 09:49:13;;;;;;;11.88;2.78;;;4.10;99.90;;;;;;4997941;28;20662;-81
2022/01/20 09:51:41;;;;;;;13.85;3.47;;;4.10;99.90;;;;;;4997164;28;20033;-81
2022/01/20 09:54:08;;;;;;;10.30;3.60;;;4.10;99.90;;;;;;5008035;28;20044;-80
2022/01/20 09:57:01;;;;;;;11.75;4.60;;;4.10;99.90;;;;;;5002709;28;20050;-90
2022/01/20 09:59:28;;;;;;;13.48;3.67;;;4.10;99.90;;;;;;4961298;28;20426;-91
2022/01/20 10:01:58;;;;;;;12.93;3.10;;;4.20;99.90;;;;;;5011654;28;20042;-90
2022/01/20 10:04:25;;;;;;;8.73;3.00;;;4.20;99.90;;;;;;4960806;28;20054;-86
2022/01/20 10:07:04;;;;;;;10.68;3.17;;;4.20;99.90;;;;;;4974305;28;20451;-88
2022/01/20 10:09:44;;;;;;;15.70;2.45;;;4.30;99.90;;;;;;4969684;28;20045;-88
2022/01/20 10:12:14;;;;;;;7.50;2.72;;;4.30;99.90;;;;;;4970061;28;20162;-87
2022/01/20 10:14:45;;;;;;;9.55;3.00;;;4.20;99.90;;;;;;4995784;28;20371;-88
2022/01/20 10:17:18;;;;;;;12.23;3.47;;;4.10;99.90;;;;;;4981933;28;20046;-88
2022/01/20 10:19:46;;;;;;;13.13;3.53;;;4.10;99.90;;;;;;4970745;28;20051;-88
2022/01/20 10:22:16;;;;;;;13.50;4.03;;;4.10;99.90;;;;;;4962175;28;20034;-78
2022/01/20 10:25:01;;;;;;;12.07;3.67;;;4.10;99.90;;;;;;5001430;28;20085;-87
2022/01/20 10:27:32;;;;;;;15.15;3.88;;;4.10;99.90;;;;;;4985251;28;20366;-87
2022/01/20 10:30:05;;;;;;;18.98;4.35;;;4.10;99.90;;;;;;4977567;28;20041;-87
2022/01/20 10:32:42;;;;;;;10.07;3.20;;;4.10;99.90;;;;;;4983377;28;20056;-87
2022/01/20 10:35:14;;;;;;;9.25;3.28;;;4.10;99.90;;;;;;5006545;28;20053;-87
2022/01/20 10:37:52;;;;;;;13.40;4.10;;;4.20;99.90;;;;;;4994908;28;20046;-88
2022/01/20 10:40:21;;;;;;;16.98;4.00;;;4.20;99.90;;;;;;4997224;28;20568;-89
2022/01/20 10:42:54;;;;;;;11.13;3.22;;;4.20;99.90;;;;;;5006537;28;20065;-89
2022/01/20 10:45:29;;;;;;;8.18;2.42;;;4.20;99.90;;;;;;5001317;28;20492;-88
2022/01/20 10:47:57;;;;;;;5.90;1.80;;;4.10;99.90;;;;;;4987498;28;20463;-88
2022/01/20 10:50:29;;;;;;;6.30;1.92;;;4.00;99.90;;;;;;4982975;28;20387;-87
2022/01/20 10:52:55;;;;;;;6.25;1.80;;;3.90;99.90;;;;;;4984634;28;20401;-87
2022/01/20 10:55:34;;;;;;;4.28;1.83;;;3.90;99.90;;;;;;4978313;28;20133;-87
2022/01/20 10:58:16;;;;;;;8.65;2.67;;;3.80;99.90;;;;;;4979458;28;20038;-88
2022/01/20 11:00:48;;;;;;;12.83;3.67;;;3.90;99.90;;;;;;4977926;28;20036;-88
2022/01/20 11:03:15;;;;;;;18.40;3.75;;;3.90;99.90;;;;;;4993685;28;20092;-87
2022/01/20 11:05:45;;;;;;;9.88;3.95;;;4.00;99.90;;;;;;4990253;28;20137;-87
2022/01/20 11:08:11;;;;;;;12.88;3.85;;;4.20;99.90;;;;;;4980363;28;20033;-89
2022/01/20 11:10:41;;;;;;;13.80;3.88;;;4.30;99.90;;;;;;4959307;28;20038;-87
2022/01/20 11:13:07;;;;;;;11.75;3.95;;;4.40;99.90;;;;;;4964302;28;20173;-77
2022/01/20 11:15:34;;;;;;;11.40;2.88;;;4.60;99.90;;;;;;4983612;28;20125;-77
2022/01/20 11:18:00;;;;;;;19.63;4.32;;;4.70;99.90;;;;;;4975591;28;20104;-77
2022/01/20 11:20:38;;;;;;;14.65;4.32;;;4.80;99.90;;;;;;4978068;28;20487;-78
2022/01/20 11:23:07;;;;;;;14.25;4.13;;;4.70;99.90;;;;;;4990991;28;20113;-77
2022/01/20 11:25:36;;;;;;;21.60;6.35;;;4.60;99.90;;;;;;4963016;28;20045;-77
2022/01/20 11:28:12;;;;;;;25.85;7.00;;;4.50;99.90;;;;;;4997340;28;20120;-77
2022/01/20 11:31:06;;;;;;;19.50;4.75;;;4.50;99.90;;;;;;4996800;28;20473;-78
2022/01/20 11:33:35;;;;;;;16.67;4.70;;;4.70;99.90;;;;;;4973149;28;20034;-77
2022/01/20 11:36:09;;;;;;;10.02;3.97;;;5.00;99.90;;;;;;4967914;28;20048;-78
2022/01/20 11:38:46;;;;;;;14.13;5.10;;;5.30;99.90;;;;;;4978123;28;20069;-87
2022/01/20 11:41:14;;;;;;;12.65;4.63;;;5.60;99.90;;;;;;4973415;28;20089;-86
2022/01/20 11:43:43;;;;;;;7.30;3.03;;;5.80;99.90;;;;;;4977363;28;20492;-86
2022/01/20 11:46:17;;;;;;;8.23;3.30;;;6.10;99.90;;;;;;4973808;28;20156;-77
2022/01/20 11:49:02;;;;;;;11.45;2.63;;;6.40;99.90;;;;;;4958914;28;20362;-77
2022/01/20 11:51:42;;;;;;;11.18;3.55;;;7.20;99.90;;;;;;4995267;28;20046;-78
2022/01/20 11:54:10;;;;;;;10.32;3.95;;;7.90;99.90;;;;;;4975772;28;20651;-77
2022/01/20 11:56:40;;;;;;;9.52;3.47;;;8.50;95.90;;;;;;4994062;28;20064;-77
2022/01/20 11:59:15;;;;;;;10.13;3.65;;;9.00;93.10;;;;;;5006358;28;20577;-78
2022/01/20 12:01:52;;;;;;;12.60;3.40;;;9.00;90.00;;;;;;5008171;28;20089;-77
2022/01/20 12:04:33;;;;;;;7.80;3.08;;;8.80;85.80;;;;;;4988632;28;20037;-77
2022/01/20 12:07:00;;;;;;;8.55;3.05;;;8.30;81.70;;;;;;4972342;28;20038;-77
2022/01/20 12:09:34;;;;;;;7.72;2.78;;;7.90;85.90;;;;;;4958793;28;20327;-77
2022/01/20 12:12:19;;;;;;;9.85;3.30;;;8.10;85.90;;;;;;4973344;28;20068;-81
2022/01/20 12:14:45;;;;;;;;;;;8.40;84.50;;;;;;4991202;28;20211;-79
2022/01/20 12:17:15;;;;;;;13.48;3.38;;;8.80;83.90;;;;;;5001920;28;20011;-77
2022/01/20 12:19:43;;;;;;;13.48;3.20;;;9.10;82.40;;;;;;4988743;28;20046;-76
2022/01/20 12:22:14;;;;;;;15.45;4.32;;;9.00;81.10;;;;;;4989714;28;20056;-77
2022/01/20 12:24:51;;;;;;;13.70;4.93;;;8.50;82.20;;;;;;4990301;28;20111;-76
2022/01/20 12:27:28;;;;;;;14.82;3.97;;;8.00;83.20;;;;;;4979649;28;20041;-77
2022/01/20 12:29:57;;;;;;;11.05;3.17;;;7.50;86.10;;;;;;4977521;28;20129;-76
2022/01/20 12:32:27;;;;;;;10.43;3.42;;;7.20;88.90;;;;;;4978042;28;20041;-77
2022/01/20 12:34:59;;;;;;;12.63;3.28;;;7.00;90.20;;;;;;4963477;28;20042;-77
2022/01/20 12:37:39;;;;;;;11.87;3.57;;;7.20;90.80;;;;;;4993173;28;20042;-78
2022/01/20 12:40:21;;;;;;;14.57;3.88;;;8.00;86.70;;;;;;5010652;28;20034;-79
2022/01/20 12:42:48;;;;;;;17.35;4.63;;;8.60;87.40;;;;;;4993044;28;20049;-77
2022/01/20 12:48:15;;;;;;;9.45;2.92;;;9.50;80.70;;;;;;5027906;28;20441;-77
2022/01/20 12:50:59;;;;;;;9.57;3.20;;;9.00;79.80;;;;;;4996399;28;20045;-77
2022/01/20 12:53:39;;;;;;;12.52;3.08;;;8.60;75.90;;;;;;4990248;28;20104;-77
2022/01/20 12:56:09;;;;;;;10.98;4.22;;;8.00;76.20;;;;;;5009765;28;20111;-77
2022/01/20 12:58:52;;;;;;;7.03;2.30;;;7.70;79.60;;;;;;5028890;28;20038;-76
2022/01/20 13:01:19;;;;;;;;;;;7.60;78.80;;;;;;4967113;28;20040;-76
2022/01/20 13:03:45;;;;;;;12.30;2.78;;;7.70;77.00;;;;;;5013033;28;19924;-79
2022/01/20 13:06:27;;;;;;;10.55;3.55;;;7.80;80.70;;;;;;4982926;28;20045;-78
2022/01/20 13:08:58;;;;;;;8.50;3.33;;;7.60;79.70;;;;;;5012605;28;20385;-76
2022/01/20 13:12:02;;;;;;;10.30;3.05;;;7.30;80.30;;;;;;5012825;28;20228;-76
2022/01/20 13:14:55;;;;;;;7.90;3.20;;;7.10;78.00;;;;;;5010657;28;20531;-75
2022/01/20 13:17:23;;;;;;;5.30;1.58;;;6.70;81.60;;;;;;4979139;28;20255;-75
2022/01/20 13:19:50;;;;;;;4.25;1.60;;;6.50;84.70;;;;;;5006439;28;20034;-74
2022/01/20 13:22:27;;;;;;;3.97;1.58;;;6.20;88.10;;;;;;5013032;28;20037;-75
2022/01/20 13:24:53;;;;;;;5.63;1.80;;;5.90;89.50;;;;;;5000716;28;20087;-75
2022/01/20 13:27:20;;;;;;;4.53;1.42;;;5.70;90.70;;;;;;4995356;28;20054;-74
2022/01/20 13:29:50;;;;;;;6.07;2.53;;;5.50;91.40;;;;;;4977787;28;20069;-75
2022/01/20 13:32:17;;;;;;;7.28;2.00;;;5.30;91.80;;;;;;4994209;28;20042;-74
2022/01/20 13:35:01;;;;;;;6.32;1.88;;;5.20;93.10;;;;;;4992990;28;20037;-75
2022/01/20 13:37:30;;;;;;;6.82;2.47;;;5.10;93.60;;;;;;5015863;28;20049;-89
2022/01/20 13:39:57;;;;;;;8.50;3.80;;;5.20;95.00;;;;;;4994269;28;20394;-89
2022/01/20 13:45:12;;;;;;;8.02;2.70;;;6.10;98.30;;;;;;5016106;28;20123;-89
2022/01/20 13:47:59;;;;;;;6.13;2.22;;;7.10;97.20;;;;;;5014672;28;20052;-88
2022/01/20 13:50:26;;;;;;;7.90;3.00;;;8.70;94.00;;;;;;5019326;28;20055;-88
2022/01/20 13:52:54;;;;;;;5.13;2.00;;;9.50;88.20;;;;;;5023405;28;20081;-87
2022/01/20 13:55:23;;;;;;;5.07;1.73;;;9.10;80.20;;;;;;5012980;28;20037;-85
2022/01/20 13:57:50;;;;;;;6.38;2.20;;;8.50;81.70;;;;;;5009516;28;20192;-84
2022/01/20 14:00:19;;;;;;;3.67;2.10;;;7.70;83.00;;;;;;5011345;28;20033;-84
2022/01/20 14:02:47;;;;;;;4.68;1.27;;;7.20;84.30;;;;;;5012038;28;20489;-84
2022/01/20 14:05:14;;;;;;;5.28;1.60;;;6.80;86.20;;;;;;5008794;28;20041;-84
2022/01/20 14:07:40;;;;;;;6.40;1.70;;;6.50;87.30;;;;;;4993935;28;20347;-84
2022/01/20 14:10:06;;;;;;;6.95;2.28;;;6.30;89.10;;;;;;4995979;28;20114;-84
2022/01/20 14:12:32;;;;;;;15.07;2.78;;;6.00;90.60;;;;;;5005765;28;20403;-87